Time;durP1;ratioP1;P1;durP2;ratioP2;P2;SDS_P1;SDS_P2;PMS_P1;PMS_P2;Temp;Humidity;BMP_temperature;BMP_pressure;BME280_temperature;BME280_humidity;BME280_pressure;Samples;Min_cycle;Max_cycle;Signal;HPM_P1;HPM_P2
2023/09/18 00:01:57;;;;;;;10.57;7.85;;;487.20;2380.80;;;;;;5034587;28;20109;-74
2023/09/18 00:04:22;;;;;;;10.75;7.80;;;487.20;2380.80;;;;;;5034732;28;20030;-73
2023/09/18 00:06:48;;;;;;;13.05;8.40;;;487.20;2380.80;;;;;;5034441;28;20100;-73
2023/09/18 00:09:14;;;;;;;11.27;8.10;;;487.20;2380.80;;;;;;5034228;28;20033;-71
2023/09/18 00:11:40;;;;;;;17.33;9.55;;;487.20;2380.80;;;;;;5034391;28;20075;-73
2023/09/18 00:14:07;;;;;;;14.50;8.30;;;487.20;2380.80;;;;;;5033570;28;20065;-71
2023/09/18 00:16:33;;;;;;;10.40;7.85;;;487.20;2380.80;;;;;;5016280;28;20096;-72
2023/09/18 00:18:59;;;;;;;12.48;8.18;;;487.20;2380.80;;;;;;5034032;28;20422;-74
2023/09/18 00:21:25;;;;;;;15.30;9.00;;;487.30;2380.80;;;;;;5034131;28;20446;-73
2023/09/18 00:23:51;;;;;;;14.77;9.25;;;487.10;2380.80;;;;;;5033846;28;20030;-72
2023/09/18 00:26:17;;;;;;;13.27;8.63;;;487.00;2380.80;;;;;;5034029;28;20099;-74
2023/09/18 00:28:43;;;;;;;18.27;9.18;;;487.10;2380.80;;;;;;5033410;28;20477;-72
2023/09/18 00:31:09;;;;;;;13.45;8.40;;;487.10;2380.80;;;;;;5034122;28;20063;-73
2023/09/18 00:33:35;;;;;;;12.35;8.93;;;487.00;2380.80;;;;;;5033689;28;20477;-74
2023/09/18 00:36:01;;;;;;;15.55;9.23;;;487.00;2380.80;;;;;;5033844;28;20025;-71
2023/09/18 00:38:27;;;;;;;14.93;9.23;;;486.90;2380.80;;;;;;5020353;28;20117;-72
2023/09/18 00:40:52;;;;;;;18.25;9.68;;;486.90;2380.80;;;;;;5033732;28;20021;-72
2023/09/18 00:43:18;;;;;;;14.02;8.85;;;487.00;2380.80;;;;;;5033441;28;20512;-72
2023/09/18 00:45:48;;;;;;;12.70;8.90;;;486.80;2380.80;;;;;;5033616;28;20021;-72
2023/09/18 00:48:15;;;;;;;16.30;9.60;;;486.80;2380.80;;;;;;5033325;28;20030;-72
2023/09/18 00:50:43;;;;;;;18.60;9.90;;;486.80;2380.80;;;;;;5033377;28;20025;-71
2023/09/18 00:53:10;;;;;;;12.48;9.13;;;486.80;2380.80;;;;;;5033473;28;20452;-72
2023/09/18 00:55:38;;;;;;;11.95;8.45;;;486.80;2380.80;;;;;;5033238;28;20101;-72
2023/09/18 00:58:05;;;;;;;15.57;9.82;;;486.80;2380.80;;;;;;5033204;28;20025;-72
2023/09/18 01:00:30;;;;;;;13.80;8.57;;;486.80;2380.80;;;;;;5033485;28;20044;-72
2023/09/18 01:02:56;;;;;;;14.32;9.23;;;486.80;2380.80;;;;;;5033321;28;20493;-73
2023/09/18 01:05:22;;;;;;;14.68;9.55;;;486.70;2380.80;;;;;;5033342;28;20021;-72
2023/09/18 01:07:48;;;;;;;14.52;9.38;;;486.70;2380.80;;;;;;5033124;28;20378;-72
2023/09/18 01:10:19;;;;;;;15.70;8.48;;;486.80;2380.80;;;;;;5033145;28;20433;-72
2023/09/18 01:13:05;;;;;;;12.85;8.80;;;486.80;2380.80;;;;;;5032804;28;20555;-72
2023/09/18 01:15:36;;;;;;;11.80;8.65;;;486.80;2380.80;;;;;;5033273;28;20029;-72
2023/09/18 01:18:03;;;;;;;14.52;8.82;;;486.80;2380.80;;;;;;5032915;28;20025;-73
2023/09/18 01:20:28;;;;;;;13.27;9.48;;;486.80;2380.80;;;;;;5033074;28;20069;-73
2023/09/18 01:22:54;;;;;;;15.43;8.75;;;486.80;2380.80;;;;;;5019590;28;20053;-72
2023/09/18 01:25:20;;;;;;;12.40;9.05;;;486.70;2380.80;;;;;;5032932;28;20053;-71
2023/09/18 01:27:46;;;;;;;14.45;9.68;;;486.70;2380.80;;;;;;5032851;28;20076;-72
2023/09/18 01:30:12;;;;;;;12.75;9.52;;;486.70;2380.80;;;;;;5033105;28;20033;-72
2023/09/18 01:32:40;;;;;;;13.45;9.13;;;486.60;2380.80;;;;;;5033141;28;20024;-72
2023/09/18 01:35:08;;;;;;;14.77;9.65;;;486.60;2380.80;;;;;;5032720;28;20025;-72
2023/09/18 01:37:35;;;;;;;16.52;9.88;;;486.70;2380.80;;;;;;5032991;28;20009;-73
2023/09/18 01:40:06;;;;;;;16.75;10.27;;;486.60;2380.80;;;;;;5032731;28;20516;-72
2023/09/18 01:42:33;;;;;;;12.82;9.65;;;486.50;2380.80;;;;;;5033028;28;20108;-72
2023/09/18 01:44:59;;;;;;;12.70;9.10;;;486.60;2380.80;;;;;;5032678;28;20033;-73
2023/09/18 01:47:26;;;;;;;11.63;8.55;;;486.50;2380.80;;;;;;5032941;28;20025;-73
2023/09/18 01:49:52;;;;;;;12.48;9.50;;;486.50;2380.80;;;;;;5032601;28;20037;-72
2023/09/18 01:52:18;;;;;;;12.93;8.98;;;486.60;2380.80;;;;;;5032602;28;20025;-72
2023/09/18 01:54:44;;;;;;;14.38;9.05;;;486.70;2380.80;;;;;;5032318;28;20036;-72
2023/09/18 01:57:12;;;;;;;19.40;9.23;;;486.70;2380.80;;;;;;5032481;28;20040;-73
2023/09/18 01:59:37;;;;;;;12.63;8.80;;;486.70;2380.80;;;;;;5032675;28;20381;-72
2023/09/18 02:02:06;;;;;;;14.57;10.20;;;486.50;2380.80;;;;;;5032890;28;20026;-72
2023/09/18 02:04:32;;;;;;;12.82;9.05;;;486.50;2380.80;;;;;;5032656;28;20025;-74
2023/09/18 02:06:58;;;;;;;16.08;10.65;;;486.50;2380.80;;;;;;5032673;28;20025;-72
2023/09/18 02:09:23;;;;;;;16.30;10.38;;;486.50;2380.80;;;;;;5032022;28;20037;-71
2023/09/18 02:11:49;;;;;;;12.93;9.57;;;486.40;2380.80;;;;;;5032578;28;20021;-72
2023/09/18 02:14:15;;;;;;;16.45;10.18;;;486.40;2380.80;;;;;;5032447;28;20478;-71
2023/09/18 02:16:46;;;;;;;15.90;9.18;;;461.70;2380.80;;;;;;5032846;28;20029;-72
2023/09/18 02:19:13;;;;;;;14.38;9.82;;;461.70;2380.80;;;;;;5032244;28;20033;-72
2023/09/18 02:21:40;;;;;;;15.25;9.85;;;461.70;2380.80;;;;;;5032259;28;20049;-72
2023/09/18 02:24:07;;;;;;;15.40;9.85;;;461.70;2380.80;;;;;;5019154;28;20384;-72
2023/09/18 02:26:33;;;;;;;15.52;9.73;;;461.70;2380.80;;;;;;5032568;28;20021;-71
2023/09/18 02:29:00;;;;;;;16.77;10.70;;;461.70;2380.80;;;;;;5032382;28;20030;-71
2023/09/18 02:31:25;;;;;;;14.68;10.07;;;461.60;2380.80;;;;;;5032517;28;20017;-72
2023/09/18 02:33:51;;;;;;;14.10;9.23;;;461.60;2380.80;;;;;;5032201;28;20099;-71
2023/09/18 02:36:17;;;;;;;14.27;9.95;;;461.60;2380.80;;;;;;5032562;28;20022;-73
2023/09/18 02:38:43;;;;;;;12.40;9.27;;;461.70;2380.80;;;;;;5033872;28;20029;-73
2023/09/18 02:41:09;;;;;;;15.77;9.63;;;461.70;2380.80;;;;;;5035814;28;20474;-72
2023/09/18 02:43:37;;;;;;;17.13;9.55;;;461.70;2380.80;;;;;;5035809;28;20068;-74
2023/09/18 02:46:04;;;;;;;13.15;9.13;;;461.70;2380.80;;;;;;5036154;28;20021;-72
2023/09/18 02:48:30;;;;;;;15.35;10.90;;;486.40;2380.80;;;;;;5035676;28;20036;-72
2023/09/18 02:50:56;;;;;;;16.20;10.15;;;486.40;2380.80;;;;;;5035582;28;20057;-72
2023/09/18 02:53:24;;;;;;;13.07;9.65;;;486.50;2380.80;;;;;;5035585;28;20064;-72
2023/09/18 02:55:58;;;;;;;19.55;11.02;;;486.50;2380.80;;;;;;5035599;28;20379;-72
2023/09/18 02:58:26;;;;;;;14.95;10.75;;;486.70;2380.80;;;;;;5035509;28;20374;-72
2023/09/18 03:00:59;;;;;;;13.60;10.23;;;486.50;2380.80;;;;;;5035570;28;20040;-71
2023/09/18 03:03:25;;;;;;;12.88;8.77;;;486.50;2380.80;;;;;;5022724;28;20017;-73
2023/09/18 03:05:51;;;;;;;18.08;10.23;;;486.60;2380.80;;;;;;5035330;28;20060;-71
2023/09/18 03:08:17;;;;;;;17.80;10.30;;;486.70;2380.80;;;;;;5035414;28;20061;-72
2023/09/18 03:10:43;;;;;;;17.20;10.45;;;486.70;2380.80;;;;;;5034926;28;20018;-72
2023/09/18 03:13:11;;;;;;;13.95;9.52;;;486.70;2380.80;;;;;;5035235;28;20029;-72
2023/09/18 03:15:37;;;;;;;22.17;10.48;;;486.70;2380.80;;;;;;5035024;28;20021;-72
2023/09/18 03:18:04;;;;;;;18.88;9.88;;;486.70;2380.80;;;;;;5035376;28;20025;-71
2023/09/18 03:20:30;;;;;;;14.48;10.40;;;486.50;2380.80;;;;;;5017200;28;20137;-72
2023/09/18 03:22:58;;;;;;;15.73;10.32;;;486.40;2380.80;;;;;;5035064;28;20032;-72
2023/09/18 03:25:24;;;;;;;11.98;9.80;;;486.40;2380.80;;;;;;5035072;28;20155;-72
2023/09/18 03:27:52;;;;;;;15.57;10.13;;;486.40;2380.80;;;;;;5035039;28;20108;-72
2023/09/18 03:30:19;;;;;;;14.00;9.55;;;461.70;2380.80;;;;;;5034723;28;20164;-72
2023/09/18 03:32:48;;;;;;;14.50;9.23;;;461.70;2380.80;;;;;;5035032;28;20484;-73
2023/09/18 03:35:18;;;;;;;14.02;9.93;;;461.60;2380.80;;;;;;5034800;28;20374;-73
2023/09/18 03:37:45;;;;;;;16.08;9.45;;;461.50;2380.80;;;;;;5034824;28;20035;-71
2023/09/18 03:40:11;;;;;;;14.57;9.52;;;461.70;2380.80;;;;;;5035078;28;20025;-71
2023/09/18 03:42:36;;;;;;;17.00;10.55;;;461.70;2380.80;;;;;;5034854;28;20029;-74
2023/09/18 03:45:03;;;;;;;15.77;9.95;;;461.70;2380.80;;;;;;5034463;28;20036;-71
2023/09/18 03:47:28;;;;;;;17.65;9.65;;;461.60;2380.80;;;;;;5034729;28;20022;-71
2023/09/18 03:49:54;;;;;;;17.13;9.13;;;461.50;2380.80;;;;;;5033850;28;20140;-72
2023/09/18 03:52:20;;;;;;;18.38;11.27;;;461.40;2380.80;;;;;;5028799;28;20389;-71
2023/09/18 03:54:46;;;;;;;16.85;9.98;;;461.50;2380.80;;;;;;5034529;28;20025;-71
2023/09/18 03:57:11;;;;;;;16.10;10.68;;;461.50;2380.80;;;;;;5034454;28;20025;-72
2023/09/18 03:59:37;;;;;;;20.65;9.68;;;461.50;2380.80;;;;;;5034482;28;20201;-73
2023/09/18 04:02:03;;;;;;;14.45;9.70;;;461.50;2380.80;;;;;;5034581;28;20026;-74
2023/09/18 04:04:29;;;;;;;15.98;9.80;;;461.60;2380.80;;;;;;5034061;28;20075;-75
2023/09/18 04:06:55;;;;;;;16.05;10.05;;;461.60;2380.80;;;;;;5034441;28;20026;-71
2023/09/18 04:09:21;;;;;;;17.25;10.65;;;461.60;2380.80;;;;;;5034206;28;20492;-72
2023/09/18 04:11:47;;;;;;;17.92;10.07;;;461.60;2380.80;;;;;;5034394;28;20026;-72
2023/09/18 04:14:12;;;;;;;14.98;8.93;;;461.70;2380.80;;;;;;5034237;28;20065;-72
2023/09/18 04:16:41;;;;;;;14.85;9.73;;;461.70;2380.80;;;;;;5034072;28;20033;-72
2023/09/18 04:19:08;;;;;;;19.73;11.02;;;461.70;2380.80;;;;;;5021640;28;20042;-71
2023/09/18 04:21:33;;;;;;;17.35;10.32;;;461.70;2380.80;;;;;;5023750;28;20518;-71
2023/09/18 04:23:59;;;;;;;17.30;10.48;;;461.60;2380.80;;;;;;5020381;28;20045;-71
2023/09/18 04:26:29;;;;;;;15.50;10.32;;;461.50;2380.80;;;;;;5027250;28;20022;-71
2023/09/18 04:28:56;;;;;;;23.67;10.68;;;461.60;2380.80;;;;;;5025736;28;20070;-70
2023/09/18 04:31:22;;;;;;;13.63;9.60;;;461.50;2380.80;;;;;;5027781;28;20033;-71
2023/09/18 04:33:48;;;;;;;20.05;10.00;;;461.40;2380.80;;;;;;5019665;28;20034;-71
2023/09/18 04:36:15;;;;;;;16.65;10.82;;;461.40;2380.80;;;;;;5031805;28;20361;-71
2023/09/18 04:38:41;;;;;;;16.73;10.50;;;461.30;2380.80;;;;;;5024132;28;20112;-72
2023/09/18 04:41:10;;;;;;;20.33;11.02;;;461.20;2380.80;;;;;;5028962;28;20091;-71
2023/09/18 04:43:40;;;;;;;20.55;10.63;;;461.20;2380.80;;;;;;5025846;28;20029;-73
2023/09/18 04:46:05;;;;;;;21.92;10.35;;;461.20;2380.80;;;;;;5027951;28;20025;-73
2023/09/18 04:48:32;;;;;;;16.08;10.35;;;461.20;2380.80;;;;;;5026973;28;20021;-72
2023/09/18 04:50:58;;;;;;;20.02;10.48;;;461.20;2380.80;;;;;;5028428;28;20040;-73
2023/09/18 04:53:25;;;;;;;16.77;10.32;;;461.10;2380.80;;;;;;5018561;28;20077;-74
2023/09/18 04:55:50;;;;;;;16.60;11.20;;;461.30;2380.80;;;;;;5023419;28;20116;-74
2023/09/18 04:58:19;;;;;;;16.30;10.98;;;461.50;2380.80;;;;;;5022512;28;20120;-71
2023/09/18 05:00:46;;;;;;;21.02;11.07;;;461.60;2380.80;;;;;;5025441;28;20025;-74
2023/09/18 05:03:12;;;;;;;35.53;30.05;;;461.60;2380.80;;;;;;5021090;28;20041;-73
2023/09/18 05:05:38;;;;;;;41.20;32.53;;;461.70;2380.80;;;;;;5026878;28;20500;-71
2023/09/18 05:08:10;;;;;;;24.42;18.20;;;461.70;2380.80;;;;;;5015133;28;20034;-75
2023/09/18 05:10:39;;;;;;;18.48;12.90;;;461.70;2380.80;;;;;;5013339;28;20108;-74
2023/09/18 05:13:05;;;;;;;15.95;10.65;;;486.50;2380.80;;;;;;5020885;28;20100;-74
2023/09/18 05:15:30;;;;;;;15.73;9.98;;;486.50;2380.80;;;;;;5023397;28;20037;-75
2023/09/18 05:17:58;;;;;;;13.63;10.05;;;486.50;2380.80;;;;;;5018245;28;20026;-75
2023/09/18 05:20:28;;;;;;;14.52;9.55;;;486.60;2380.80;;;;;;5024768;28;20045;-75
2023/09/18 05:22:55;;;;;;;18.90;9.82;;;486.70;2380.80;;;;;;5022727;28;20057;-75
2023/09/18 05:25:22;;;;;;;13.60;9.90;;;486.70;2380.80;;;;;;5019036;28;20022;-73
2023/09/18 05:27:55;;;;;;;17.45;9.50;;;486.80;2380.80;;;;;;5018496;28;20474;-75
2023/09/18 05:30:29;;;;;;;19.95;9.85;;;486.90;2380.80;;;;;;5020022;28;20034;-76
2023/09/18 05:32:55;;;;;;;13.38;9.68;;;487.00;2380.80;;;;;;5026628;28;20390;-76
2023/09/18 05:35:22;;;;;;;17.15;9.68;;;487.10;2380.80;;;;;;5024490;28;20033;-75
2023/09/18 05:37:51;;;;;;;16.13;9.55;;;487.20;2380.80;;;;;;5024011;28;20075;-75
2023/09/18 05:40:17;;;;;;;14.82;10.05;;;512.00;2380.80;;;;;;5023792;28;20029;-75
2023/09/18 05:42:44;;;;;;;15.50;8.40;;;512.10;2380.80;;;;;;5024899;28;20010;-75
2023/09/18 05:45:11;;;;;;;14.32;7.95;;;512.30;2380.80;;;;;;5024888;28;20402;-76
2023/09/18 05:47:38;;;;;;;11.70;8.50;;;512.40;2380.80;;;;;;5016525;28;20486;-74
2023/09/18 05:50:08;;;;;;;17.70;9.07;;;512.50;2380.80;;;;;;5020592;28;20034;-74
2023/09/18 05:52:34;;;;;;;11.18;8.07;;;512.70;2380.80;;;;;;5022556;28;20026;-75
2023/09/18 05:55:01;;;;;;;19.50;9.27;;;512.80;2380.80;;;;;;5024642;28;20053;-74
2023/09/18 05:57:29;;;;;;;19.00;8.38;;;512.90;2380.80;;;;;;5027260;28;20043;-74
2023/09/18 05:59:58;;;;;;;18.20;7.68;;;537.60;2406.40;;;;;;5020941;28;20057;-73
2023/09/18 06:02:24;;;;;;;10.40;7.40;;;537.70;2406.40;;;;;;5023757;28;20088;-74
2023/09/18 06:04:56;;;;;;;11.80;7.43;;;537.80;2406.40;;;;;;5021974;28;20049;-74
2023/09/18 06:07:22;;;;;;;15.18;7.53;;;538.00;2406.40;;;;;;5026554;28;20053;-74
2023/09/18 06:09:48;;;;;;;15.10;7.05;;;538.00;2406.40;;;;;;5025423;28;20033;-75
2023/09/18 06:12:14;;;;;;;12.45;7.13;;;538.10;2406.40;;;;;;5028589;28;20026;-75
2023/09/18 06:14:40;;;;;;;11.40;7.63;;;538.20;2406.40;;;;;;5023179;28;20018;-74
2023/09/18 06:17:06;;;;;;;10.63;7.60;;;538.30;2406.40;;;;;;5025941;28;20062;-75
2023/09/18 06:19:32;;;;;;;11.23;6.75;;;538.30;2406.40;;;;;;5031116;28;20022;-76
2023/09/18 06:21:58;;;;;;;17.80;8.20;;;538.50;2406.40;;;;;;5022256;28;20042;-78
2023/09/18 06:24:24;;;;;;;13.80;7.57;;;563.30;2432.00;;;;;;5029062;28;20018;-77
2023/09/18 06:26:51;;;;;;;13.90;7.63;;;563.40;2432.00;;;;;;5020427;28;20480;-78
2023/09/18 06:29:16;;;;;;;16.58;7.57;;;563.50;2432.00;;;;;;5023741;28;20048;-76
2023/09/18 06:31:42;;;;;;;12.55;7.03;;;563.60;2432.00;;;;;;5029328;28;20108;-77
2023/09/18 06:34:08;;;;;;;16.38;8.18;;;563.70;2432.00;;;;;;5033204;28;20056;-78
2023/09/18 06:36:33;;;;;;;17.80;6.65;;;563.90;2432.00;;;;;;5018603;28;20057;-80
2023/09/18 06:38:59;;;;;;;8.77;6.22;;;564.00;2432.00;;;;;;5026646;28;20033;-74
2023/09/18 06:41:25;;;;;;;9.80;6.15;;;588.80;2432.00;;;;;;5026806;28;20442;-75
2023/09/18 06:43:51;;;;;;;16.55;6.55;;;588.80;2432.00;;;;;;5014209;28;20033;-74
2023/09/18 06:46:16;;;;;;;17.83;7.35;;;589.00;2432.00;;;;;;5022224;28;20105;-75
2023/09/18 06:48:45;;;;;;;15.65;7.38;;;589.10;2432.00;;;;;;5029139;28;20354;-74
2023/09/18 06:51:11;;;;;;;11.75;6.82;;;589.20;2432.00;;;;;;5024005;28;20034;-73
2023/09/18 06:53:37;;;;;;;9.75;6.55;;;589.40;2432.00;;;;;;5022061;28;20014;-72
2023/09/18 06:56:03;;;;;;;13.43;6.88;;;589.50;2432.00;;;;;;5027114;28;20037;-72
2023/09/18 06:58:28;;;;;;;10.48;6.50;;;589.60;2432.00;;;;;;5033318;28;20116;-72
2023/09/18 07:00:54;;;;;;;19.70;7.45;;;589.70;2432.00;;;;;;5026000;28;20129;-73
2023/09/18 07:03:20;;;;;;;13.30;6.50;;;614.40;2432.00;;;;;;5026780;28;20036;-73
2023/09/18 07:05:46;;;;;;;10.10;6.93;;;614.50;2432.00;;;;;;5024091;28;20033;-72
2023/09/18 07:08:12;;;;;;;16.60;7.47;;;614.60;2432.00;;;;;;5029083;28;20072;-73
2023/09/18 07:10:39;;;;;;;14.25;7.28;;;614.80;2432.00;;;;;;5025748;28;20018;-72
2023/09/18 07:13:05;;;;;;;13.85;7.13;;;614.80;2432.00;;;;;;5025584;28;20497;-74
2023/09/18 07:15:32;;;;;;;13.52;8.30;;;614.80;2432.00;;;;;;5030246;28;20064;-72
2023/09/18 07:17:58;;;;;;;13.23;7.20;;;;;;;;;;5026019;28;20033;-72
2023/09/18 07:20:24;;;;;;;9.45;6.65;;;;;;;;;;5029958;28;20050;-73
2023/09/18 07:22:50;;;;;;;10.95;6.60;;;615.10;2432.00;;;;;;5033558;28;20029;-71
2023/09/18 07:25:16;;;;;;;12.05;6.28;;;615.30;2432.00;;;;;;5026174;28;20014;-71
2023/09/18 07:27:46;;;;;;;16.48;6.45;;;640.20;2432.00;;;;;;5026884;28;20092;-73
2023/09/18 07:30:17;;;;;;;15.48;7.47;;;640.10;2432.00;;;;;;5024677;28;20052;-71
2023/09/18 07:32:43;;;;;;;12.70;7.07;;;640.20;2432.00;;;;;;5024445;28;20030;-72
2023/09/18 07:35:09;;;;;;;15.30;6.95;;;640.40;2432.00;;;;;;5020018;28;20030;-70
2023/09/18 07:37:36;;;;;;;20.05;7.28;;;640.70;2432.00;;;;;;5025041;28;20029;-73
2023/09/18 07:40:06;;;;;;;7.30;5.97;;;640.80;2432.00;;;;;;5023817;28;20036;-71
2023/09/18 07:42:33;;;;;;;11.07;6.40;;;640.70;2432.00;;;;;;5026756;28;20613;-71
2023/09/18 07:44:59;;;;;;;11.23;6.63;;;640.70;2432.00;;;;;;5022616;28;20029;-71
2023/09/18 07:47:25;;;;;;;17.40;6.57;;;640.70;2432.00;;;;;;5019897;28;20498;-73
2023/09/18 07:49:51;;;;;;;16.77;7.13;;;640.90;2432.00;;;;;;5021655;28;20041;-71
2023/09/18 07:52:17;;;;;;;11.68;6.88;;;665.70;2432.00;;;;;;5025862;28;20547;-69
2023/09/18 07:54:43;;;;;;;15.57;6.60;;;665.70;2432.00;;;;;;5024417;28;20033;-70
2023/09/18 07:57:09;;;;;;;8.70;6.90;;;665.70;2432.00;;;;;;5030835;28;20025;-72
2023/09/18 07:59:36;;;;;;;12.07;6.88;;;665.90;2432.00;;;;;;5025283;28;20504;-72
2023/09/18 08:02:02;;;;;;;16.23;7.00;;;;;;;;;;5022386;28;20041;-70
2023/09/18 08:04:32;;;;;;;10.98;6.50;;;666.20;2406.40;;;;;;5030755;28;20032;-70
2023/09/18 08:06:57;;;;;;;9.50;5.90;;;666.20;2432.00;;;;;;5014150;28;20033;-72
2023/09/18 08:09:23;;;;;;;16.23;6.97;;;666.30;2406.40;;;;;;5027816;28;20496;-72
2023/09/18 08:11:49;;;;;;;13.02;6.97;;;666.50;2380.80;;;;;;5023938;28;20018;-74
2023/09/18 08:14:17;;;;;;;18.25;7.15;;;691.30;2355.20;;;;;;5027413;28;20030;-71
2023/09/18 08:16:42;;;;;;;9.73;6.57;;;691.40;2329.60;;;;;;5022128;28;20057;-70
2023/09/18 08:19:09;;;;;;;15.20;7.22;;;691.40;2304.00;;;;;;5023979;28;20500;-73
2023/09/18 08:21:35;;;;;;;13.70;6.55;;;691.30;2304.00;;;;;;5028754;28;20057;-73
2023/09/18 08:24:00;;;;;;;14.02;6.32;;;691.60;2252.80;;;;;;5031919;28;20115;-71
2023/09/18 08:26:28;;;;;;;14.60;7.15;;;691.90;2227.20;;;;;;5020714;28;20075;-72
2023/09/18 08:28:54;;;;;;;10.77;6.93;;;692.00;2227.20;;;;;;5022798;28;20040;-73
2023/09/18 08:31:19;;;;;;;14.00;6.35;;;716.80;2227.20;;;;;;5025298;28;20101;-73
2023/09/18 08:33:45;;;;;;;11.27;6.63;;;692.10;2176.00;;;;;;5020496;28;20061;-73
2023/09/18 08:36:12;;;;;;;15.82;6.85;;;692.10;2201.60;;;;;;5021047;28;20045;-72
2023/09/18 08:38:38;;;;;;;10.30;6.80;;;717.10;2201.60;;;;;;5024173;28;20097;-72
2023/09/18 08:41:05;;;;;;;9.30;6.68;;;716.90;2150.40;;;;;;5024917;28;20108;-73
2023/09/18 08:43:32;;;;;;;12.60;7.13;;;716.90;2176.00;;;;;;5021007;28;20025;-73
2023/09/18 08:46:01;;;;;;;10.45;6.38;;;717.10;2150.40;;;;;;5030569;28;20036;-73
2023/09/18 08:48:34;;;;;;;12.02;6.15;;;717.10;2124.80;;;;;;5027210;28;20025;-73
2023/09/18 08:51:04;;;;;;;14.32;6.93;;;717.10;2099.20;;;;;;5026213;28;20124;-72
2023/09/18 08:53:35;;;;;;;13.57;7.00;;;716.90;2099.20;;;;;;5020616;28;20542;-73
2023/09/18 08:56:03;;;;;;;14.68;7.35;;;717.20;2099.20;;;;;;5025051;28;20536;-74
2023/09/18 08:58:35;;;;;;;9.52;6.18;;;717.20;2073.60;;;;;;5023112;28;20022;-71
2023/09/18 09:01:03;;;;;;;9.70;6.25;;;717.70;2048.00;;;;;;5023494;28;20018;-75
2023/09/18 09:03:30;;;;;;;16.02;6.82;;;717.50;2048.00;;;;;;5022623;28;20037;-74
2023/09/18 09:05:56;;;;;;;11.75;5.93;;;742.50;2073.60;;;;;;5022376;28;20022;-73
2023/09/18 09:08:22;;;;;;;12.77;6.00;;;742.40;2022.40;;;;;;5026873;28;20056;-76
2023/09/18 09:10:50;;;;;;;10.63;6.28;;;742.50;1996.80;;;;;;5020587;28;20018;-74
2023/09/18 09:13:15;;;;;;;11.98;6.15;;;742.70;2022.40;;;;;;5025357;28;20099;-74
2023/09/18 09:15:46;;;;;;;9.82;6.35;;;742.50;1996.80;;;;;;5026602;28;20446;-73
2023/09/18 09:18:14;;;;;;;9.93;6.20;;;742.50;1996.80;;;;;;5022504;28;20033;-73
2023/09/18 09:20:41;;;;;;;14.65;7.00;;;742.80;1971.20;;;;;;5027461;28;20038;-73
2023/09/18 09:23:09;;;;;;;12.32;7.13;;;742.80;1996.80;;;;;;5023161;28;20032;-72
2023/09/18 09:25:36;;;;;;;11.07;6.72;;;742.70;1971.20;;;;;;5025106;28;20018;-72
2023/09/18 09:28:07;;;;;;;14.30;6.65;;;742.70;1945.60;;;;;;5019611;28;20386;-72
2023/09/18 09:30:35;;;;;;;11.18;7.45;;;743.00;1945.60;;;;;;5024351;28;20112;-73
2023/09/18 09:33:04;;;;;;;13.68;6.40;;;768.00;1945.60;;;;;;5021058;28;20030;-74
2023/09/18 09:35:37;;;;;;;10.88;6.60;;;768.00;1920.00;;;;;;5018510;28;20018;-74
2023/09/18 09:38:09;;;;;;;15.38;7.10;;;743.10;1920.00;;;;;;5022361;28;20026;-74
2023/09/18 09:40:38;;;;;;;12.43;6.28;;;743.30;1894.40;;;;;;5022439;28;20029;-75
2023/09/18 09:43:04;;;;;;;11.75;6.03;;;743.30;1894.40;;;;;;5024886;28;20025;-73
2023/09/18 09:45:36;;;;;;;14.15;6.55;;;743.10;1894.40;;;;;;5024989;28;20079;-72
2023/09/18 09:48:06;;;;;;;11.10;6.53;;;743.00;1894.40;;;;;;5030832;28;20037;-73
2023/09/18 09:50:32;;;;;;;8.45;6.10;;;742.90;1894.40;;;;;;5021196;28;20104;-75
2023/09/18 09:52:59;;;;;;;10.65;6.55;;;743.00;1868.80;;;;;;5030745;28;20026;-71
2023/09/18 09:55:37;;;;;;;12.23;6.95;;;743.10;1894.40;;;;;;5027784;28;20030;-74
2023/09/18 09:58:05;;;;;;;11.35;7.45;;;768.00;1868.80;;;;;;5031055;28;20018;-74
2023/09/18 10:00:45;;;;;;;9.82;6.28;;;768.20;1843.20;;;;;;5029087;28;20030;-74
2023/09/18 10:03:16;;;;;;;8.40;6.20;;;768.10;1843.20;;;;;;5023824;28;20075;-74
2023/09/18 10:05:44;;;;;;;14.85;7.07;;;768.30;1817.60;;;;;;5028595;28;20029;-71
2023/09/18 10:08:30;;;;;;;18.20;7.03;;;768.30;1817.60;;;;;;5023020;28;20033;-73
2023/09/18 10:11:04;;;;;;;11.88;6.10;;;768.50;1792.00;;;;;;5021197;28;20121;-73
2023/09/18 10:13:46;;;;;;;10.05;6.22;;;768.30;1817.60;;;;;;5022120;28;20026;-74
2023/09/18 10:16:14;;;;;;;11.55;6.30;;;768.30;1817.60;;;;;;5028882;28;20073;-73
2023/09/18 10:18:52;;;;;;;11.02;6.25;;;768.70;1792.00;;;;;;5025445;28;20155;-73
2023/09/18 10:21:41;;;;;;;16.42;6.47;;;768.90;1766.40;;;;;;5030064;28;20060;-73
2023/09/18 10:24:16;;;;;;;11.23;6.80;;;793.80;1766.40;;;;;;5032193;28;20040;-72
2023/09/18 10:26:52;;;;;;;13.13;7.32;;;768.80;1740.80;;;;;;5021328;28;20091;-72
2023/09/18 10:29:20;;;;;;;12.48;6.18;;;768.80;1740.80;;;;;;5026046;28;20042;-72
2023/09/18 10:31:48;;;;;;;12.02;7.55;;;768.90;1740.80;;;;;;5033780;28;20067;-71
2023/09/18 10:34:16;;;;;;;10.15;5.93;;;768.60;1766.40;;;;;;5024058;28;20022;-72
2023/09/18 10:36:44;;;;;;;12.73;7.15;;;768.40;1766.40;;;;;;5015478;28;20029;-72
2023/09/18 10:39:12;;;;;;;11.63;6.38;;;768.80;1766.40;;;;;;5025449;28;20477;-73
2023/09/18 10:41:39;;;;;;;12.55;6.68;;;793.70;1740.80;;;;;;5025413;28;20026;-71
2023/09/18 10:44:06;;;;;;;18.67;6.57;;;794.00;1740.80;;;;;;5024732;28;20022;-71
2023/09/18 10:46:32;;;;;;;7.38;5.82;;;794.20;1740.80;;;;;;5028695;28;20025;-71
2023/09/18 10:49:00;;;;;;;11.27;7.28;;;794.10;1740.80;;;;;;5026132;28;20040;-73
2023/09/18 10:51:28;;;;;;;8.88;6.25;;;794.10;1715.20;;;;;;5027310;28;20029;-73
2023/09/18 10:53:56;;;;;;;9.27;5.70;;;794.20;1715.20;;;;;;5032704;28;20018;-74
2023/09/18 10:56:22;;;;;;;10.50;7.05;;;794.20;1715.20;;;;;;5023415;28;20938;-74
2023/09/18 10:58:56;;;;;;;10.30;6.80;;;;;;;;;;5023663;28;20024;-74
2023/09/18 11:01:24;;;;;;;13.40;6.20;;;819.20;1689.60;;;;;;5025709;28;20018;-72
2023/09/18 11:03:50;;;;;;;13.23;6.93;;;819.30;1689.60;;;;;;5027001;28;20723;-75
2023/09/18 11:06:19;;;;;;;10.93;6.78;;;794.30;1689.60;;;;;;5023527;28;20104;-74
2023/09/18 11:08:46;;;;;;;8.82;5.65;;;819.20;1689.60;;;;;;5029823;28;20088;-74
2023/09/18 11:11:19;;;;;;;9.95;6.30;;;;;;;;;;5008181;28;20049;-71
2023/09/18 11:13:46;;;;;;;13.60;6.75;;;;;;;;;;5021055;28;20112;-72
2023/09/18 11:16:27;;;;;;;12.30;6.78;;;;;;;;;;5029145;28;20018;-71
2023/09/18 11:19:17;;;;;;;9.88;6.65;;;819.70;1638.40;;;;;;5022500;28;20498;-72
2023/09/18 11:21:43;;;;;;;10.27;6.93;;;819.80;1587.20;;;;;;5021552;28;20049;-73
2023/09/18 11:24:17;;;;;;;10.27;6.80;;;819.80;1612.80;;;;;;5030681;28;20052;-73
2023/09/18 11:26:45;;;;;;;13.23;6.72;;;819.60;1612.80;;;;;;5019489;28;20025;-77
2023/09/18 11:29:13;;;;;;;13.43;6.60;;;819.50;1638.40;;;;;;5022100;28;20033;-75
2023/09/18 11:31:45;;;;;;;11.13;6.60;;;819.50;1638.40;;;;;;5021825;28;20119;-72
2023/09/18 11:34:39;;;;;;;12.98;6.35;;;794.50;1638.40;;;;;;5026506;28;20385;-75
2023/09/18 11:37:21;;;;;;;12.60;7.53;;;819.60;1612.80;;;;;;5022146;28;20026;-72
2023/09/18 11:39:46;;;;;;;13.20;6.80;;;819.30;1638.40;;;;;;5025279;28;20017;-74
2023/09/18 11:42:26;;;;;;;9.27;5.93;;;819.60;1612.80;;;;;;5031332;28;20106;-74
2023/09/18 11:44:52;;;;;;;14.43;6.68;;;819.50;1612.80;;;;;;5022587;28;20033;-74
2023/09/18 11:47:21;;;;;;;11.73;6.88;;;819.30;1638.40;;;;;;5020576;28;20021;-71
2023/09/18 11:49:54;;;;;;;9.95;6.70;;;819.50;1612.80;;;;;;5023721;28;20088;-74
2023/09/18 11:52:21;;;;;;;9.80;6.85;;;819.60;1587.20;;;;;;5029103;28;20505;-71
2023/09/18 11:54:47;;;;;;;11.93;7.28;;;819.30;1638.40;;;;;;5028405;28;20041;-74
2023/09/18 11:57:14;;;;;;;10.15;6.50;;;819.50;1612.80;;;;;;5022825;28;20049;-75
2023/09/18 11:59:43;;;;;;;11.40;6.50;;;819.70;1612.80;;;;;;5024879;28;20418;-71
2023/09/18 12:02:36;;;;;;;13.82;7.47;;;819.50;1612.80;;;;;;5023738;28;20071;-75
2023/09/18 12:05:19;;;;;;;10.63;6.88;;;819.60;1612.80;;;;;;5001314;28;20585;-72
2023/09/18 12:07:46;;;;;;;12.20;7.07;;;819.30;1612.80;;;;;;5000715;28;20041;-71
2023/09/18 12:10:15;;;;;;;13.95;7.10;;;819.30;1612.80;;;;;;5001716;28;20045;-76
2023/09/18 12:12:43;;;;;;;11.25;6.82;;;819.70;1587.20;;;;;;4993023;28;20661;-75
2023/09/18 12:15:12;;;;;;;10.70;5.88;;;819.30;1612.80;;;;;;5001890;28;20038;-76